Time;durP1;ratioP1;P1;durP2;ratioP2;P2;SDS_P1;SDS_P2;PMS_P1;PMS_P2;Temp;Humidity;BMP_temperature;BMP_pressure;BME280_temperature;BME280_humidity;BME280_pressure;Samples;Min_cycle;Max_cycle;Signal;HPM_P1;HPM_P2
2023/07/17 00:02:03;;;;;;;3.38;2.20;;;;;;;18.34;90.10;101310.69;4996843;28;20408;-79
2023/07/17 00:04:29;;;;;;;3.58;2.00;;;;;;;18.34;89.92;101310.69;4997952;28;20034;-79
2023/07/17 00:06:54;;;;;;;5.43;2.10;;;;;;;18.37;91.31;101307.00;5004019;28;20030;-80
2023/07/17 00:09:20;;;;;;;4.57;2.05;;;;;;;18.37;91.12;101315.50;5011199;28;20021;-80
2023/07/17 00:11:45;;;;;;;7.65;2.58;;;;;;;18.22;92.18;101314.06;5004878;28;20537;-80
2023/07/17 00:14:10;;;;;;;5.38;2.17;;;;;;;18.25;92.60;101319.66;4992719;28;20030;-79
2023/07/17 00:16:36;;;;;;;5.18;3.15;;;;;;;18.15;94.06;101319.78;4982070;28;20508;-79
2023/07/17 00:19:01;;;;;;;3.95;1.60;;;;;;;18.28;93.54;101323.72;5003236;28;20728;-79
2023/07/17 00:21:26;;;;;;;6.45;2.08;;;;;;;17.95;95.95;101320.38;4999059;28;20449;-79
2023/07/17 00:23:52;;;;;;;3.35;1.58;;;;;;;17.96;93.55;101319.16;4993504;28;20431;-79
2023/07/17 00:26:17;;;;;;;3.58;1.63;;;;;;;17.97;92.88;101319.97;5004996;28;20493;-79
2023/07/17 00:28:43;;;;;;;7.60;1.83;;;;;;;17.93;92.19;101314.31;5001836;28;20044;-79
2023/07/17 00:31:08;;;;;;;3.67;1.60;;;;;;;18.10;91.02;101320.25;5000072;28;20029;-79
2023/07/17 00:33:34;;;;;;;3.00;1.40;;;;;;;17.99;91.04;101326.81;5001442;28;20087;-79
2023/07/17 00:35:59;;;;;;;9.13;2.20;;;;;;;17.80;91.39;101325.31;4993290;28;20030;-80
2023/07/17 00:38:25;;;;;;;5.35;1.70;;;;;;;17.84;91.66;101336.66;4991836;28;20038;-79
2023/07/17 00:40:50;;;;;;;6.18;1.80;;;;;;;17.91;90.65;101322.44;4997665;28;20037;-79
2023/07/17 00:43:15;;;;;;;4.88;1.63;;;;;;;17.69;91.48;101321.78;5005178;28;20029;-80
2023/07/17 00:45:44;;;;;;;4.97;1.55;;;;;;;18.01;89.50;101327.19;5009270;28;20035;-79
2023/07/17 00:48:10;;;;;;;3.08;2.38;;;;;;;17.98;89.88;101325.22;4999810;28;20080;-79
2023/07/17 00:50:38;;;;;;;4.28;1.83;;;;;;;18.08;89.01;101320.66;5002676;28;20405;-79
2023/07/17 00:53:06;;;;;;;9.13;1.90;;;;;;;18.04;89.21;101320.69;5001594;28;20477;-79
2023/07/17 00:55:33;;;;;;;3.28;1.50;;;;;;;18.12;88.96;101320.63;4997680;28;20808;-80
2023/07/17 00:57:59;;;;;;;8.50;2.13;;;;;;;18.17;88.85;101317.34;4998790;28;20030;-79
2023/07/17 01:00:24;;;;;;;3.30;1.58;;;;;;;18.15;88.66;101320.59;4994284;28;20037;-79
2023/07/17 01:02:54;;;;;;;5.15;1.48;;;;;;;18.06;89.70;101323.91;5006090;28;20592;-79
2023/07/17 01:05:19;;;;;;;3.72;1.60;;;;;;;17.95;91.06;101323.19;4991804;28;20042;-79
2023/07/17 01:07:48;;;;;;;8.23;2.40;;;;;;;17.58;93.50;101321.03;4990510;28;20680;-79
2023/07/17 01:10:13;;;;;;;4.10;1.83;;;;;;;17.93;91.17;101324.84;5001250;28;20037;-79
2023/07/17 01:12:39;;;;;;;3.05;1.77;;;;;;;18.03;90.29;101319.09;5017610;28;20056;-79
2023/07/17 01:15:04;;;;;;;5.55;2.05;;;;;;;17.86;92.16;101315.19;4999448;28;20030;-79
2023/07/17 01:17:30;;;;;;;6.28;2.10;;;;;;;17.76;93.88;101318.09;5008060;28;20030;-79
2023/07/17 01:19:55;;;;;;;7.22;1.95;;;;;;;17.88;92.34;101326.91;4992817;28;20030;-79
2023/07/17 01:22:30;;;;;;;3.75;1.70;;;;;;;17.93;91.90;101322.81;4997576;28;20025;-79
2023/07/17 01:24:55;;;;;;;5.22;1.40;;;;;;;17.99;91.58;101329.66;4996418;28;20505;-79
2023/07/17 01:27:21;;;;;;;7.50;1.98;;;;;;;17.81;93.68;101317.63;5001107;28;20032;-79
2023/07/17 01:29:46;;;;;;;4.78;1.85;;;;;;;17.88;92.20;101317.63;4998894;28;20045;-79
2023/07/17 01:32:12;;;;;;;9.13;2.10;;;;;;;17.96;92.06;101329.66;4994192;28;20025;-80
2023/07/17 01:34:38;;;;;;;7.60;2.03;;;;;;;18.02;93.04;101331.63;4998495;28;20029;-79
2023/07/17 01:37:07;;;;;;;6.10;2.22;;;;;;;17.95;93.08;101323.19;4994757;28;20029;-79
2023/07/17 01:39:33;;;;;;;6.80;2.20;;;;;;;17.86;93.63;101328.56;5000148;28;20041;-79
2023/07/17 01:41:58;;;;;;;5.88;2.08;;;;;;;17.81;94.01;101331.78;4998182;28;20444;-79
2023/07/17 01:44:27;;;;;;;7.07;2.08;;;;;;;17.94;93.55;101320.78;5001103;28;20080;-79
2023/07/17 01:46:56;;;;;;;7.85;2.47;;;;;;;17.84;93.87;101316.84;4994903;28;20109;-79
2023/07/17 01:49:21;;;;;;;5.45;2.10;;;;;;;17.88;92.84;101323.28;5001382;28;20030;-79
2023/07/17 01:51:47;;;;;;;5.28;1.92;;;;;;;17.70;95.32;101331.06;5001692;28;20607;-79
2023/07/17 01:54:12;;;;;;;4.18;1.60;;;;;;;17.77;93.95;101328.19;5000942;28;20050;-79
2023/07/17 01:56:38;;;;;;;5.18;1.67;;;;;;;17.74;93.85;101326.19;5002132;28;20549;-79
2023/07/17 01:59:03;;;;;;;3.72;1.77;;;;;;;17.82;93.34;101325.75;5010085;28;20563;-79
2023/07/17 02:01:29;;;;;;;7.07;2.67;;;;;;;17.61;94.32;101325.88;5000447;28;20055;-79
2023/07/17 02:03:54;;;;;;;5.32;1.90;;;;;;;17.71;93.83;101318.50;5003199;28;20413;-79
2023/07/17 02:06:19;;;;;;;4.53;2.08;;;;;;;17.70;93.70;101323.38;4997868;28;20046;-80
2023/07/17 02:08:45;;;;;;;4.32;1.73;;;;;;;17.72;93.69;101325.81;4994505;28;20026;-80
2023/07/17 02:11:10;;;;;;;5.55;2.47;;;;;;;17.48;94.46;101329.22;4997953;28;20029;-79
2023/07/17 02:13:35;;;;;;;6.00;2.15;;;;;;;17.47;94.38;101332.44;4997629;28;20399;-79
2023/07/17 02:16:01;;;;;;;5.20;2.03;;;;;;;17.37;94.90;101334.16;4991690;28;20271;-79
2023/07/17 02:18:26;;;;;;;3.40;1.85;;;;;;;17.55;93.87;101339.66;4996916;28;20563;-79
2023/07/17 02:20:51;;;;;;;5.32;2.00;;;;;;;17.46;93.72;101345.00;4993436;28;20040;-79
2023/07/17 02:23:17;;;;;;;3.22;2.33;;;;;;;17.42;93.68;101335.72;4993695;28;20034;-79
2023/07/17 02:25:43;;;;;;;6.25;1.92;;;;;;;17.44;92.94;101338.94;4996772;28;20560;-79
2023/07/17 02:28:09;;;;;;;7.68;1.98;;;;;;;17.35;93.55;101333.75;5000971;28;20029;-79
2023/07/17 02:30:37;;;;;;;7.82;2.03;;;;;;;17.54;92.02;101337.25;4991905;28;20073;-79
2023/07/17 02:33:03;;;;;;;8.63;2.45;;;;;;;17.59;91.55;101340.44;5000061;28;20041;-79
2023/07/17 02:35:28;;;;;;;4.63;1.90;;;;;;;17.66;91.36;101343.22;5018232;28;20034;-79
2023/07/17 02:37:53;;;;;;;6.80;1.65;;;;;;;17.65;91.53;101344.44;5003223;28;20148;-79
2023/07/17 02:40:19;;;;;;;8.05;2.47;;;;;;;17.58;91.96;101344.53;4994581;28;20117;-79
2023/07/17 02:42:44;;;;;;;3.40;2.20;;;;;;;17.43;93.08;101351.47;5003510;28;20482;-79
2023/07/17 02:45:10;;;;;;;7.80;2.88;;;;;;;17.51;92.64;101353.03;5005515;28;20186;-79
2023/07/17 02:47:35;;;;;;;3.78;2.00;;;;;;;17.54;92.10;101346.56;4997016;28;20029;-79
2023/07/17 02:50:03;;;;;;;4.93;2.33;;;;;;;17.54;93.27;101345.75;4986446;28;20536;-79
2023/07/17 02:52:34;;;;;;;7.50;2.38;;;;;;;17.31;95.12;101347.13;4992067;28;20041;-79
2023/07/17 02:54:59;;;;;;;11.02;1.98;;;;;;;17.31;94.47;101340.63;4997630;28;20033;-79
2023/07/17 02:57:24;;;;;;;8.38;2.58;;;;;;;16.97;97.17;101350.53;5000963;28;20033;-79
2023/07/17 02:59:54;;;;;;;4.55;2.30;;;;;;;17.02;96.28;101352.91;4995265;28;20034;-79
2023/07/17 03:02:20;;;;;;;10.65;2.65;;;;;;;17.12;95.67;101347.59;4997704;28;20049;-79
2023/07/17 03:04:45;;;;;;;5.80;2.00;;;;;;;17.15;95.82;101350.41;4995177;28;20050;-79
2023/07/17 03:07:10;;;;;;;6.78;2.72;;;;;;;17.19;95.40;101356.06;4997309;28;20037;-79
2023/07/17 03:09:36;;;;;;;5.47;2.38;;;;;;;17.07;96.07;101349.66;4999268;28;20077;-79
2023/07/17 03:12:02;;;;;;;7.47;2.28;;;;;;;17.07;95.38;101351.66;4996775;28;20083;-79
2023/07/17 03:14:27;;;;;;;7.28;2.20;;;;;;;17.20;94.67;101358.50;4997939;28;20096;-79
2023/07/17 03:16:53;;;;;;;8.10;2.00;;;;;;;17.08;95.81;101358.97;4997785;28;20034;-79
2023/07/17 03:19:18;;;;;;;8.60;2.50;;;;;;;17.08;95.55;101356.13;5002001;28;20030;-79
2023/07/17 03:21:43;;;;;;;7.47;2.10;;;;;;;17.11;95.76;101357.31;5000462;28;20057;-79
2023/07/17 03:24:09;;;;;;;8.43;2.38;;;;;;;16.90;96.30;101361.84;4994262;28;20475;-79
2023/07/17 03:26:34;;;;;;;4.75;2.13;;;;;;;17.05;94.93;101362.59;5002114;28;20040;-79
2023/07/17 03:28:59;;;;;;;5.93;1.98;;;;;;;16.98;95.55;101356.97;4990282;28;20029;-79
2023/07/17 03:31:25;;;;;;;4.90;1.90;;;;;;;17.04;94.88;101367.44;4995233;28;20026;-79
2023/07/17 03:33:50;;;;;;;3.58;1.95;;;;;;;16.99;95.58;101356.56;4995999;28;20084;-79
2023/07/17 03:36:15;;;;;;;6.03;1.77;;;;;;;17.01;94.35;101367.44;4996564;28;20056;-79
2023/07/17 03:38:41;;;;;;;8.70;2.20;;;;;;;17.11;93.31;101360.16;4992778;28;20116;-79
2023/07/17 03:41:07;;;;;;;5.53;2.30;;;;;;;17.00;94.48;101360.19;4995258;28;20030;-79
2023/07/17 03:43:32;;;;;;;5.32;1.83;;;;;;;17.09;94.00;101368.25;4992237;28;20487;-79
2023/07/17 03:45:57;;;;;;;8.90;2.47;;;;;;;16.63;96.06;101359.50;4991061;28;20049;-79
2023/07/17 03:48:23;;;;;;;9.02;2.20;;;;;;;16.83;94.99;101365.50;4996855;28;20410;-79
2023/07/17 03:50:48;;;;;;;7.85;2.13;;;;;;;16.83;94.88;101361.88;4996050;28;21448;-79
2023/07/17 03:53:14;;;;;;;3.58;1.80;;;;;;;16.83;95.16;101362.69;5003866;28;20041;-79
2023/07/17 03:55:39;;;;;;;4.50;1.70;;;;;;;16.92;93.98;101369.94;4994670;28;20046;-79
2023/07/17 03:58:06;;;;;;;7.28;2.20;;;;;;;17.09;93.03;101380.34;5001779;28;20096;-79
2023/07/17 04:00:32;;;;;;;5.05;1.85;;;;;;;16.71;94.98;101385.72;5010095;28;20033;-79
2023/07/17 04:02:57;;;;;;;7.03;2.13;;;;;;;16.53;96.77;101379.28;5000723;28;20030;-79
2023/07/17 04:05:23;;;;;;;3.60;2.30;;;;;;;16.41;97.42;101374.88;5013445;28;20034;-79
2023/07/17 04:07:48;;;;;;;6.88;2.15;;;;;;;16.64;95.90;101383.72;5007824;28;20037;-79
2023/07/17 04:10:14;;;;;;;4.97;1.77;;;;;;;16.80;94.57;101373.97;4995940;28;20026;-79
2023/07/17 04:12:39;;;;;;;8.15;2.38;;;;;;;16.65;95.47;101365.56;4995684;28;20026;-79
2023/07/17 04:15:05;;;;;;;6.43;1.80;;;;;;;16.92;93.55;101381.25;4977117;28;20037;-79
2023/07/17 04:17:30;;;;;;;6.78;2.05;;;;;;;16.78;95.24;101382.88;4988567;28;20497;-79
2023/07/17 04:19:56;;;;;;;8.23;2.88;;;;;;;16.76;95.28;101379.66;4998837;28;20044;-79
2023/07/17 04:22:21;;;;;;;12.40;2.40;;;;;;;16.70;96.00;101380.47;4995548;28;20391;-79
2023/07/17 04:24:47;;;;;;;5.93;2.55;;;;;;;16.71;95.78;101388.53;4992723;28;20121;-79
2023/07/17 04:27:12;;;;;;;6.88;2.95;;;;;;;16.54;96.92;101386.56;4991175;28;20147;-79
2023/07/17 04:29:37;;;;;;;4.35;2.35;;;;;;;16.59;96.05;101384.13;5001330;28;20092;-79
2023/07/17 04:32:03;;;;;;;7.47;2.33;;;;;;;16.57;97.12;101388.56;4999857;28;20108;-79
2023/07/17 04:34:30;;;;;;;4.00;2.80;;;;;;;16.67;95.76;101384.91;5002005;28;20030;-79
2023/07/17 04:36:56;;;;;;;8.05;2.25;;;;;;;16.67;95.22;101387.75;4998192;28;20200;-79
2023/07/17 04:39:21;;;;;;;8.20;3.00;;;;;;;16.59;96.42;101388.97;4998248;28;20097;-78
2023/07/17 04:41:46;;;;;;;5.43;2.58;;;;;;;16.55;96.45;101396.66;4994520;28;20037;-79
2023/07/17 04:44:12;;;;;;;6.57;2.95;;;;;;;16.26;97.95;101385.41;4991625;28;20145;-79
2023/07/17 04:46:37;;;;;;;4.05;2.40;;;;;;;16.43;97.02;101384.56;4989362;28;20072;-79
2023/07/17 04:49:02;;;;;;;7.30;2.33;;;;;;;16.80;94.03;101386.13;4994498;28;20042;-79
2023/07/17 04:51:28;;;;;;;9.75;4.32;;;;;;;16.68;95.77;101380.88;4991005;28;20026;-79
2023/07/17 04:53:54;;;;;;;5.80;2.28;;;;;;;16.72;96.08;101395.81;4996193;28;20034;-79
2023/07/17 04:56:19;;;;;;;5.15;2.22;;;;;;;16.71;95.02;101387.75;4990363;28;20026;-79
2023/07/17 04:58:45;;;;;;;5.88;2.05;;;;;;;16.73;96.10;101402.28;4989847;28;20588;-79
2023/07/17 05:01:11;;;;;;;11.57;3.42;;;;;;;16.35;98.23;101397.09;4990126;28;20461;-79
2023/07/17 05:03:37;;;;;;;8.90;2.95;;;;;;;16.68;96.53;101406.31;4995443;28;20038;-79
2023/07/17 05:06:03;;;;;;;3.90;2.22;;;;;;;16.62;96.86;101413.59;4993756;28;20054;-79
2023/07/17 05:08:28;;;;;;;9.02;2.95;;;;;;;16.58;97.87;101413.59;4989725;28;20571;-79
2023/07/17 05:10:59;;;;;;;6.70;3.55;;;;;;;16.50;98.36;101412.00;4997135;28;20541;-79
2023/07/17 05:13:25;;;;;;;4.03;2.50;;;;;;;16.37;99.66;101420.09;4993187;28;20037;-79
2023/07/17 05:15:51;;;;;;;9.80;2.50;;;;;;;16.45;99.78;101416.03;4983703;28;20552;-79
2023/07/17 05:18:17;;;;;;;7.65;3.47;;;;;;;16.31;99.50;101416.06;4989726;28;20034;-79
2023/07/17 05:20:47;;;;;;;5.90;2.65;;;;;;;16.52;98.72;101408.78;4992684;28;20573;-79
2023/07/17 05:23:13;;;;;;;5.43;3.42;;;;;;;16.60;97.84;101416.81;4993370;28;20033;-79
2023/07/17 05:25:38;;;;;;;7.45;2.20;;;;;;;16.65;98.37;101418.44;5006032;28;20057;-79
2023/07/17 05:28:04;;;;;;;7.90;2.90;;;;;;;16.61;99.13;101420.44;4991541;28;20030;-79
2023/07/17 05:30:34;;;;;;;9.15;3.67;;;;;;;16.39;100.00;101422.50;4995944;28;20376;-79
2023/07/17 05:32:59;;;;;;;7.97;4.13;;;;;;;16.50;99.97;101417.66;5005799;28;20096;-79
2023/07/17 05:35:25;;;;;;;8.65;2.75;;;;;;;16.75;98.07;101417.59;4996741;28;20045;-79
2023/07/17 05:37:50;;;;;;;8.35;3.63;;;;;;;16.52;100.00;101428.56;5003868;28;20045;-79
2023/07/17 05:40:16;;;;;;;9.43;3.10;;;;;;;16.70;99.53;101428.50;5002106;28;20042;-79
2023/07/17 05:42:42;;;;;;;7.40;2.78;;;;;;;16.63;100.00;101437.81;4992769;28;20038;-79
2023/07/17 05:45:08;;;;;;;8.70;2.90;;;;;;;16.72;99.61;101429.75;4989685;28;20946;-79
2023/07/17 05:47:34;;;;;;;10.95;4.25;;;;;;;16.66;99.85;101437.00;4992726;28;20056;-79
2023/07/17 05:49:59;;;;;;;11.63;3.00;;;;;;;16.86;99.65;101443.88;4991368;28;20044;-79
2023/07/17 05:52:25;;;;;;;7.88;3.58;;;;;;;16.93;98.12;101445.03;4992287;28;20030;-79
2023/07/17 05:54:50;;;;;;;12.70;3.58;;;;;;;16.99;98.82;101432.09;4988072;28;20045;-79
2023/07/17 05:57:15;;;;;;;10.60;3.88;;;;;;;17.14;96.51;101445.00;4996661;28;20129;-79
2023/07/17 05:59:41;;;;;;;12.00;4.43;;;;;;;17.09;96.95;101447.44;4995712;28;20030;-79
2023/07/17 06:02:06;;;;;;;10.82;3.75;;;;;;;16.72;99.63;101449.53;4998915;28;20076;-79
2023/07/17 06:04:32;;;;;;;6.05;3.17;;;;;;;16.89;100.00;101445.06;5000051;28;20172;-81
2023/07/17 06:06:57;;;;;;;4.88;3.08;;;;;;;17.77;95.84;101459.25;5002327;28;20473;-85
2023/07/17 06:09:22;;;;;;;10.07;3.03;;;;;;;18.10;97.59;101461.88;4997602;28;20070;-74
2023/07/17 06:11:48;;;;;;;8.63;2.97;;;;;;;17.94;92.62;101449.06;5004726;28;20160;-75
2023/07/17 06:14:13;;;;;;;13.00;3.67;;;;;;;17.46;95.94;101461.03;5001493;28;20129;-75
2023/07/17 06:16:38;;;;;;;12.32;3.88;;;;;;;17.49;96.23;101465.84;5006161;28;20029;-75
2023/07/17 06:19:04;;;;;;;8.45;4.75;;;;;;;17.61;94.47;101461.75;5003255;28;20034;-74
2023/07/17 06:21:29;;;;;;;10.07;3.65;;;;;;;17.44;94.88;101469.13;4998901;28;20037;-74
2023/07/17 06:23:54;;;;;;;10.55;3.75;;;;;;;17.42;96.84;101474.38;5005852;28;20389;-74
2023/07/17 06:26:20;;;;;;;10.20;3.13;;;;;;;17.76;94.32;101480.28;4999859;28;20030;-75
2023/07/17 06:28:47;;;;;;;11.38;3.30;;;;;;;17.46;96.25;101495.00;5002039;28;20061;-75
2023/07/17 06:31:12;;;;;;;9.50;3.78;;;;;;;17.24;97.61;101482.94;5006086;28;20474;-75
2023/07/17 06:33:38;;;;;;;13.02;3.08;;;;;;;17.35;95.75;101488.56;5008479;28;20029;-75
2023/07/17 06:36:03;;;;;;;10.85;3.80;;;;;;;17.25;96.33;101479.69;4999366;28;20037;-75
2023/07/17 06:38:29;;;;;;;8.82;4.03;;;;;;;17.24;96.43;101483.75;5002542;28;20457;-75
2023/07/17 06:40:54;;;;;;;7.90;4.10;;;;;;;17.42;95.99;101483.69;4999730;28;20030;-75
2023/07/17 06:43:20;;;;;;;7.65;3.22;;;;;;;17.44;95.42;101483.28;4999792;28;20051;-75
2023/07/17 06:45:47;;;;;;;12.02;4.55;;;;;;;17.58;95.06;101480.38;5003515;28;20034;-75
2023/07/17 06:48:12;;;;;;;8.52;3.80;;;;;;;17.52;95.74;101482.03;5001748;28;20494;-75
2023/07/17 06:50:37;;;;;;;9.98;3.33;;;;;;;17.48;95.58;101492.56;4996065;28;20044;-74
2023/07/17 06:53:03;;;;;;;14.02;4.82;;;;;;;17.38;96.29;101501.91;5000158;28;20121;-75
2023/07/17 06:55:28;;;;;;;12.73;4.32;;;;;;;17.41;97.04;101492.56;5012465;28;20026;-75
2023/07/17 06:57:53;;;;;;;14.50;3.60;;;;;;;17.57;96.63;101507.06;5007724;28;20052;-75
2023/07/17 07:00:19;;;;;;;12.45;4.30;;;;;;;17.34;97.43;101503.94;5004138;28;20228;-75
2023/07/17 07:02:45;;;;;;;13.73;3.97;;;;;;;17.33;97.43;101505.13;5011266;28;20088;-75
2023/07/17 07:05:10;;;;;;;17.38;5.75;;;;;;;17.32;97.71;101514.84;5007845;28;20037;-74
2023/07/17 07:07:35;;;;;;;6.70;3.63;;;;;;;17.35;97.47;101502.69;5012917;28;20481;-75
2023/07/17 07:10:01;;;;;;;16.58;4.70;;;;;;;17.50;97.24;101506.28;5007252;28;20064;-75
2023/07/17 07:12:26;;;;;;;15.15;4.22;;;;;;;17.44;97.44;101497.44;5008077;28;20433;-75
2023/07/17 07:14:52;;;;;;;11.90;4.53;;;;;;;17.68;96.50;101499.31;5009377;28;20025;-74
2023/07/17 07:17:17;;;;;;;13.75;4.50;;;;;;;17.68;96.74;101504.19;5007293;28;20363;-75
2023/07/17 07:19:43;;;;;;;10.90;4.30;;;;;;;17.68;96.41;101507.81;5007037;28;20372;-75
2023/07/17 07:22:08;;;;;;;9.63;4.25;;;;;;;17.68;96.42;101513.47;5010573;28;20351;-74
2023/07/17 07:24:34;;;;;;;13.32;4.88;;;;;;;17.76;96.08;101519.13;5008976;28;20479;-75
2023/07/17 07:26:59;;;;;;;9.07;4.20;;;;;;;17.78;96.04;101508.97;5007020;28;20040;-75
2023/07/17 07:29:25;;;;;;;12.13;5.00;;;;;;;17.89;96.66;101520.28;5004089;28;20035;-75
2023/07/17 07:31:51;;;;;;;8.23;3.15;;;;;;;18.00;95.01;101518.19;5003421;28;20136;-75
2023/07/17 07:34:16;;;;;;;15.95;4.50;;;;;;;18.03;96.44;101523.03;5001123;28;20038;-75
2023/07/17 07:36:41;;;;;;;8.35;4.57;;;;;;;18.05;94.92;101514.94;5003490;28;20038;-75
2023/07/17 07:39:07;;;;;;;11.55;4.40;;;;;;;18.24;95.22;101512.78;5003899;28;20038;-75
2023/07/17 07:41:33;;;;;;;10.60;3.97;;;;;;;18.18;94.17;101514.44;5006213;28;20364;-75
2023/07/17 07:43:59;;;;;;;13.05;3.95;;;;;;;18.38;93.95;101520.38;5005991;28;20546;-75
2023/07/17 07:46:24;;;;;;;9.05;4.10;;;;;;;18.17;93.38;101532.66;5008448;28;20036;-74
2023/07/17 07:48:50;;;;;;;11.43;4.40;;;;;;;18.26;93.22;101524.50;5002465;28;20107;-74
2023/07/17 07:51:15;;;;;;;15.45;5.10;;;;;;;18.39;92.67;101531.28;5005858;28;20044;-75
2023/07/17 07:53:40;;;;;;;12.77;4.45;;;;;;;18.22;93.04;101529.41;4998292;28;20567;-75
2023/07/17 07:56:06;;;;;;;8.77;3.83;;;;;;;18.17;93.14;101527.00;5007576;28;20124;-75
2023/07/17 07:58:31;;;;;;;8.98;4.47;;;;;;;18.27;93.06;101532.56;5000306;28;20041;-75
2023/07/17 08:00:56;;;;;;;14.65;4.30;;;;;;;18.46;91.12;101534.06;5008790;28;20083;-75
2023/07/17 08:03:22;;;;;;;10.88;4.82;;;;;;;18.76;90.17;101548.81;4996629;28;20030;-75
2023/07/17 08:05:47;;;;;;;13.05;3.75;;;;;;;18.82;89.36;101538.66;5001694;28;20046;-75
2023/07/17 08:08:13;;;;;;;9.43;4.45;;;;;;;18.78;89.60;101549.19;5007022;28;20557;-75
2023/07/17 08:10:38;;;;;;;11.05;4.60;;;;;;;18.68;89.62;101542.41;5002957;28;20359;-75
2023/07/17 08:13:04;;;;;;;9.02;3.35;;;;;;;18.84;87.61;101542.69;5008748;28;20037;-75
2023/07/17 08:15:30;;;;;;;6.72;3.80;;;;;;;18.89;87.47;101545.09;5000944;28;20473;-75
2023/07/17 08:17:55;;;;;;;9.27;4.55;;;;;;;18.85;86.32;101561.31;5005931;28;20148;-75
2023/07/17 08:20:20;;;;;;;13.63;4.22;;;;;;;18.92;88.32;101553.97;5006858;28;20040;-75
2023/07/17 08:22:48;;;;;;;9.18;4.13;;;;;;;19.12;87.89;101560.69;4999124;28;20354;-75
2023/07/17 08:25:13;;;;;;;10.15;4.13;;;;;;;18.99;88.13;101549.03;5019730;28;20493;-74
2023/07/17 08:27:39;;;;;;;11.70;4.05;;;;;;;18.91;89.19;101555.19;5005948;28;20033;-75
2023/07/17 08:30:05;;;;;;;14.80;5.07;;;;;;;18.87;89.33;101546.72;4998298;28;20022;-74
2023/07/17 08:32:31;;;;;;;11.75;4.47;;;;;;;19.13;89.37;101545.25;5003712;28;20056;-74
2023/07/17 08:34:56;;;;;;;9.65;3.55;;;;;;;19.09;86.25;101562.31;5007170;28;20494;-75
2023/07/17 08:37:21;;;;;;;10.00;3.95;;;;;;;19.19;85.36;101565.47;5005330;28;20037;-75
2023/07/17 08:39:47;;;;;;;10.38;3.88;;;;;;;18.77;91.55;101576.75;5005231;28;20394;-75
2023/07/17 08:42:13;;;;;;;10.32;4.05;;;;;;;18.45;96.26;101580.66;5005541;28;20030;-75
2023/07/17 08:44:38;;;;;;;9.63;3.78;;;;;;;18.19;100.00;101582.00;5007896;28;20035;-75
2023/07/17 08:47:07;;;;;;;7.40;3.47;;;;;;;18.27;100.00;101585.63;4999548;28;20026;-74
2023/07/17 08:49:35;;;;;;;11.05;3.95;;;;;;;18.17;100.00;101592.16;4999942;28;20376;-74
2023/07/17 08:52:03;;;;;;;8.13;2.88;;;;;;;17.72;99.17;101591.94;4998119;28;20026;-74
2023/07/17 08:54:29;;;;;;;9.60;3.78;;;;;;;17.51;100.00;101601.31;5000925;28;20486;-75
2023/07/17 08:57:00;;;;;;;5.85;2.88;;;;;;;17.60;100.00;101591.19;4999075;28;20048;-74
2023/07/17 08:59:26;;;;;;;7.00;2.72;;;;;;;17.53;99.76;101588.34;5001744;28;20033;-74
2023/07/17 09:01:52;;;;;;;9.27;3.08;;;;;;;17.43;100.00;101597.69;5000909;28;20033;-75
2023/07/17 09:04:17;;;;;;;7.95;2.80;;;;;;;17.64;100.00;101588.31;5009743;28;20038;-75
2023/07/17 09:06:43;;;;;;;5.45;3.13;;;;;;;18.22;99.35;101586.06;5004232;28;20394;-75
2023/07/17 09:09:09;;;;;;;8.82;3.25;;;;;;;18.66;96.14;101595.91;4998838;28;20026;-74
2023/07/17 09:11:35;;;;;;;6.35;2.97;;;;;;;18.59;98.43;101598.78;4999561;28;20506;-75
2023/07/17 09:14:00;;;;;;;10.15;4.40;;;;;;;18.63;97.70;101589.00;4997277;28;20533;-75
2023/07/17 09:16:26;;;;;;;9.68;4.03;;;;;;;18.83;96.92;101597.00;5019952;28;20029;-75
2023/07/17 09:18:53;;;;;;;8.55;3.25;;;;;;;18.92;96.70;101600.16;5003969;28;20026;-75
2023/07/17 09:21:22;;;;;;;8.18;3.65;;;;;;;19.10;95.83;101600.00;5000500;28;20030;-75
2023/07/17 09:23:51;;;;;;;8.77;3.85;;;;;;;19.31;96.24;101604.66;5005562;28;20029;-75
2023/07/17 09:26:22;;;;;;;13.38;4.07;;;;;;;19.30;94.94;101601.00;5006924;28;20030;-75
2023/07/17 09:28:56;;;;;;;6.72;3.72;;;;;;;19.40;90.47;101601.34;4998310;28;20120;-75
2023/07/17 09:31:29;;;;;;;8.68;3.97;;;;;;;19.62;92.58;101594.19;5001540;28;20506;-75
2023/07/17 09:33:56;;;;;;;11.25;3.83;;;;;;;19.66;90.78;101594.94;5004124;28;20025;-74
2023/07/17 09:36:22;;;;;;;13.10;4.30;;;;;;;19.83;89.95;101589.50;5012326;28;20033;-75
2023/07/17 09:38:55;;;;;;;12.75;3.92;;;;;;;19.47;88.21;101595.56;5006640;28;20079;-74
2023/07/17 09:41:25;;;;;;;8.18;3.53;;;;;;;19.68;89.00;101606.69;5013497;28;20032;-74
2023/07/17 09:43:59;;;;;;;9.00;3.00;;;;;;;19.73;83.70;101613.16;5012285;28;20371;-74
2023/07/17 09:46:28;;;;;;;10.05;2.60;;;;;;;19.66;82.89;101599.81;5003520;28;20033;-75
2023/07/17 09:48:55;;;;;;;9.00;3.30;;;;;;;20.04;85.90;101603.41;5009699;28;20115;-74
2023/07/17 09:51:22;;;;;;;6.03;2.85;;;;;;;19.87;84.35;101599.59;5005353;28;20042;-75
2023/07/17 09:53:47;;;;;;;9.27;2.60;;;;;;;19.84;86.08;101608.16;5007693;28;20038;-75
2023/07/17 09:56:15;;;;;;;6.20;2.55;;;;;;;19.89;86.52;101604.84;5009419;28;20095;-74
2023/07/17 09:58:45;;;;;;;9.25;2.95;;;;;;;19.57;83.41;101606.00;5024440;28;20032;-75
2023/07/17 10:01:13;;;;;;;8.10;3.65;;;;;;;19.67;84.49;101613.59;5007689;28;20029;-75
2023/07/17 10:03:39;;;;;;;8.38;2.40;;;;;;;20.15;83.47;101606.13;5007380;28;20022;-75
2023/07/17 10:06:04;;;;;;;4.57;3.13;;;;;;;20.15;83.55;101617.50;5021057;28;20128;-75
2023/07/17 10:08:31;;;;;;;5.13;2.67;;;;;;;19.92;77.68;101603.97;5010195;28;20113;-75
2023/07/17 10:10:56;;;;;;;6.15;3.38;;;;;;;20.40;82.00;101622.81;5016679;28;20654;-75
2023/07/17 10:13:22;;;;;;;6.80;2.33;;;;;;;20.16;80.72;101624.00;5010700;28;20064;-75
2023/07/17 10:15:47;;;;;;;7.95;3.13;;;;;;;20.03;82.72;101616.03;5011789;28;20030;-75
2023/07/17 10:18:13;;;;;;;4.65;2.15;;;;;;;20.03;83.15;101610.34;5009059;28;20156;-75
2023/07/17 10:20:51;;;;;;;6.43;2.33;;;;;;;20.31;80.79;101609.16;5011038;28;20037;-75
2023/07/17 10:23:27;;;;;;;3.85;2.08;;;;;;;20.78;80.83;101614.16;5029799;28;20026;-74
2023/07/17 10:26:13;;;;;;;5.22;2.17;;;;;;;20.82;76.08;101623.44;5012768;28;20053;-75
2023/07/17 10:28:45;;;;;;;8.48;2.95;;;;;;;21.10;77.54;101619.31;5004897;28;20231;-75
2023/07/17 10:31:15;;;;;;;6.53;1.98;;;;;;;21.32;73.50;101625.41;5026708;28;20029;-75
2023/07/17 10:33:48;;;;;;;8.10;2.70;;;;;;;21.17;73.46;101624.06;5010866;28;20044;-75
2023/07/17 10:36:15;;;;;;;5.32;1.98;;;;;;;21.27;72.89;101622.25;5012865;28;20488;-74
2023/07/17 10:38:42;;;;;;;6.32;1.77;;;;;;;21.22;69.58;101620.72;5005721;28;20026;-76
2023/07/17 10:41:25;;;;;;;8.13;2.25;;;;;;;21.28;71.74;101618.97;5013854;28;20084;-75
2023/07/17 10:43:50;;;;;;;5.43;2.17;;;;;;;21.58;69.68;101620.09;5017156;28;20030;-76
2023/07/17 10:46:16;;;;;;;2.67;1.50;;;;;;;21.68;71.23;101629.66;5002456;28;20375;-75
2023/07/17 10:48:41;;;;;;;9.98;2.88;;;;;;;21.74;68.94;101636.47;5017523;28;20034;-75
2023/07/17 10:51:07;;;;;;;3.95;1.90;;;;;;;21.26;74.92;101627.16;5011661;28;20394;-76
2023/07/17 10:53:32;;;;;;;4.72;2.00;;;;;;;21.24;75.01;101623.94;5009845;28;20042;-75
2023/07/17 10:55:58;;;;;;;5.15;2.00;;;;;;;20.99;71.10;101634.97;5012384;28;20079;-75
2023/07/17 10:58:23;;;;;;;6.82;2.10;;;;;;;21.10;70.69;101625.00;5008940;28;20049;-75
2023/07/17 11:00:49;;;;;;;4.03;1.67;;;;;;;21.06;74.78;101635.66;5001483;28;20026;-75
2023/07/17 11:03:16;;;;;;;6.50;1.70;;;;;;;20.91;74.12;101631.41;5005245;28;20038;-75
2023/07/17 11:05:43;;;;;;;3.90;2.10;;;;;;;20.92;73.32;101633.84;5008514;28;20042;-75
2023/07/17 11:08:12;;;;;;;5.35;2.30;;;;;;;20.88;72.50;101633.09;5002866;28;20538;-75
2023/07/17 11:10:41;;;;;;;6.22;1.90;;;;;;;20.81;72.38;101647.44;5003721;28;20115;-75
2023/07/17 11:13:07;;;;;;;5.85;2.67;;;;;;;20.75;70.10;101649.16;5008680;28;20021;-75
2023/07/17 11:15:34;;;;;;;5.00;1.60;;;;;;;20.62;72.00;101646.13;5008612;28;20029;-75
2023/07/17 11:18:01;;;;;;;5.85;1.77;;;;;;;20.54;72.38;101644.56;5006882;28;20128;-75
2023/07/17 11:20:28;;;;;;;3.75;1.88;;;;;;;20.76;75.78;101644.28;5002812;28;20030;-75